Time;durP1;ratioP1;P1;durP2;ratioP2;P2;SDS_P1;SDS_P2;PMS_P1;PMS_P2;Temp;Humidity;BMP_temperature;BMP_pressure;BME280_temperature;BME280_humidity;BME280_pressure;Samples;Min_cycle;Max_cycle;Signal;HPM_P1;HPM_P2
2023/03/21 00:01:55;;;;;;;5.18;4.07;;;;;;;;;;4870193;29;20073;-92
2023/03/21 00:04:21;;;;;;;6.00;4.32;;;;;;;;;;4870488;29;20036;-93
2023/03/21 00:06:48;;;;;;;5.90;4.60;;;;;;;;;;4863714;29;20060;-94
2023/03/21 00:09:14;;;;;;;7.18;4.50;;;;;;;;;;4863992;29;20077;-93
2023/03/21 00:11:40;;;;;;;8.52;5.20;;;;;;;;;;4863677;29;20032;-93
2023/03/21 00:14:07;;;;;;;6.60;4.32;;;;;;;;;;4863774;29;20033;-94
2023/03/21 00:16:34;;;;;;;6.18;4.78;;;;;;;;;;4863586;29;20075;-92
2023/03/21 00:19:05;;;;;;;6.07;4.30;;;;;;;;;;4863600;29;20058;-93
2023/03/21 00:21:32;;;;;;;6.28;4.70;;;;;;;;;;4865084;29;20041;-95
2023/03/21 00:23:59;;;;;;;6.70;4.80;;;;;;;;;;4863763;29;20037;-92
2023/03/21 00:26:26;;;;;;;7.00;5.30;;;;;;;;;;4864013;29;20033;-92
2023/03/21 00:28:52;;;;;;;5.30;4.68;;;;;;;;;;4863134;29;20487;-92
2023/03/21 00:31:18;;;;;;;5.35;4.60;;;;;;;;;;4863475;29;20501;-93
2023/03/21 00:33:44;;;;;;;7.07;4.65;;;;;;;;;;4863361;29;20033;-92
2023/03/21 00:36:12;;;;;;;7.25;4.63;;;;;;;;;;4863061;29;20096;-93
2023/03/21 00:38:38;;;;;;;5.22;4.63;;;;;;;;;;4863152;29;20033;-93
2023/03/21 00:41:05;;;;;;;5.30;4.53;;;;;;;;;;4862941;29;20033;-92
2023/03/21 00:43:35;;;;;;;6.60;4.65;;;;;;;;;;4863978;29;20029;-92
2023/03/21 00:46:01;;;;;;;5.28;4.50;;;;;;;;;;4863084;29;20112;-93
2023/03/21 00:48:28;;;;;;;6.30;4.85;;;;;;;;;;4864307;29;20478;-94
2023/03/21 00:50:55;;;;;;;7.32;4.80;;;;;;;;;;4865070;29;20025;-92
2023/03/21 00:53:22;;;;;;;6.10;4.35;;;;;;;;;;4862647;29;20053;-93
2023/03/21 00:55:49;;;;;;;5.57;4.40;;;;;;;;;;4862588;29;20506;-94
2023/03/21 01:01:30;;;;;;;7.68;5.43;;;;;;;;;;4879454;29;20112;-93
2023/03/21 01:04:04;;;;;;;6.40;5.20;;;;;;;;;;4862401;29;20033;-94
2023/03/21 01:06:31;;;;;;;8.48;5.75;;;;;;;;;;4862884;29;20088;-94
2023/03/21 01:08:57;;;;;;;7.60;5.68;;;;;;;;;;4862762;29;20075;-93
2023/03/21 01:11:25;;;;;;;6.72;5.55;;;;;;;;;;4863080;29;20029;-92
2023/03/21 01:13:51;;;;;;;8.48;6.57;;;;;;;;;;4863010;29;20478;-94
2023/03/21 01:16:17;;;;;;;7.97;6.00;;;;;;;;;;4862734;29;20029;-94
2023/03/21 01:18:44;;;;;;;9.20;6.40;;;;;;;;;;4870629;29;20410;-93
2023/03/21 01:21:11;;;;;;;8.68;6.57;;;;;;;;;;4881990;29;20037;-93
2023/03/21 01:23:38;;;;;;;6.93;6.22;;;;;;;;;;4865326;29;20025;-94
2023/03/21 01:26:05;;;;;;;7.72;6.32;;;;;;;;;;4863056;29;20478;-94
2023/03/21 01:28:33;;;;;;;10.25;6.63;;;;;;;;;;4862625;29;20387;-94
2023/03/21 01:31:01;;;;;;;8.25;6.75;;;;;;;;;;4862132;29;20120;-93
2023/03/21 01:33:27;;;;;;;8.32;6.63;;;;;;;;;;4862223;29;20033;-94
2023/03/21 01:35:53;;;;;;;9.27;7.55;;;;;;;;;;4862267;29;20052;-95
2023/03/21 01:38:20;;;;;;;8.38;7.35;;;;;;;;;;4862155;29;20483;-93
2023/03/21 01:40:47;;;;;;;9.75;7.63;;;;;;;;;;4862313;29;20136;-93
2023/03/21 01:43:20;;;;;;;10.82;8.13;;;;;;;;;;4861805;29;20093;-94
2023/03/21 01:46:05;;;;;;;12.70;8.77;;;;;;;;;;4862443;29;20041;-93
2023/03/21 01:48:32;;;;;;;11.20;8.10;;;;;;;;;;4874971;29;20056;-93
2023/03/21 01:50:59;;;;;;;9.32;8.02;;;;;;;;;;4862358;29;20029;-94
2023/03/21 01:53:28;;;;;;;9.45;8.07;;;;;;;;;;4863416;29;20029;-93
2023/03/21 01:56:01;;;;;;;9.90;8.02;;;;;;;;;;4879099;29;20234;-96
2023/03/21 01:58:28;;;;;;;9.20;7.97;;;;;;;;;;4863904;29;20077;-94
2023/03/21 02:00:55;;;;;;;9.73;7.88;;;;;;;;;;4863321;29;20056;-93
2023/03/21 02:03:22;;;;;;;10.32;7.63;;;;;;;;;;4862850;29;20045;-94
2023/03/21 02:05:52;;;;;;;9.02;7.45;;;;;;;;;;4861591;29;20037;-93
2023/03/21 02:08:19;;;;;;;10.95;7.90;;;;;;;;;;4861919;29;20399;-94
2023/03/21 02:10:46;;;;;;;10.45;9.07;;;;;;;;;;4861452;29;20112;-94
2023/03/21 02:13:12;;;;;;;11.82;8.60;;;;;;;;;;4862112;29;20037;-93
2023/03/21 02:15:40;;;;;;;11.30;8.93;;;;;;;;;;4861469;29;20025;-92
2023/03/21 02:18:14;;;;;;;9.13;7.88;;;;;;;;;;4861817;29;20029;-94
2023/03/21 02:20:53;;;;;;;11.23;7.90;;;;;;;;;;4862044;29;20128;-95
2023/03/21 02:23:28;;;;;;;10.82;8.15;;;;;;;;;;4861527;29;20056;-94
2023/03/21 02:26:08;;;;;;;10.27;8.93;;;;;;;;;;4861666;29;20033;-93
2023/03/21 02:28:54;;;;;;;9.80;7.65;;;;;;;;;;4861615;29;20040;-94
2023/03/21 02:31:25;;;;;;;11.30;8.20;;;;;;;;;;4861255;29;20162;-94
2023/03/21 02:34:18;;;;;;;10.07;8.35;;;;;;;;;;4861603;29;20128;-94
2023/03/21 02:36:54;;;;;;;11.27;7.47;;;;;;;;;;4833221;29;20052;-94
2023/03/21 02:39:25;;;;;;;8.43;7.00;;;;;;;;;;4861605;29;20474;-92
2023/03/21 02:42:00;;;;;;;10.23;7.35;;;;;;;;;;4861438;29;20215;-94
2023/03/21 02:44:32;;;;;;;9.88;6.82;;;;;;;;;;4861145;29;20120;-95
2023/03/21 02:47:01;;;;;;;9.32;6.88;;;;;;;;;;4861595;29;20086;-95
2023/03/21 02:49:41;;;;;;;8.23;7.25;;;;;;;;;;4861858;29;20128;-96
2023/03/21 02:52:09;;;;;;;8.88;7.00;;;;;;;;;;4861454;29;20051;-94
2023/03/21 02:54:37;;;;;;;9.32;6.78;;;;;;;;;;4861147;29;20128;-94
2023/03/21 02:57:03;;;;;;;7.20;6.50;;;;;;;;;;4861598;29;20036;-95
2023/03/21 02:59:30;;;;;;;8.95;6.78;;;;;;;;;;4861513;29;20037;-94
2023/03/21 03:01:57;;;;;;;9.57;6.90;;;;;;;;;;4861302;29;20040;-95
2023/03/21 03:04:28;;;;;;;8.32;6.10;;;;;;;;;;4861530;29;20036;-94
2023/03/21 03:07:19;;;;;;;12.20;6.65;;;;;;;;;;4861342;29;20424;-94
2023/03/21 03:10:04;;;;;;;9.07;6.55;;;;;;;;;;4861884;29;20037;-94
2023/03/21 03:12:56;;;;;;;8.40;6.93;;;;;;;;;;4861409;29;20033;-95
2023/03/21 03:15:28;;;;;;;10.07;7.07;;;;;;;;;;4861534;29;20061;-94
2023/03/21 03:18:00;;;;;;;8.93;7.55;;;;;;;;;;4861438;29;20033;-94
2023/03/21 03:20:38;;;;;;;7.88;7.00;;;;;;;;;;4861091;29;20043;-94
2023/03/21 03:23:13;;;;;;;11.40;7.38;;;;;;;;;;4864732;29;20037;-94
2023/03/21 03:25:43;;;;;;;8.35;7.45;;;;;;;;;;4864897;29;20035;-94
2023/03/21 03:28:09;;;;;;;8.80;7.28;;;;;;;;;;4864374;29;20033;-95
2023/03/21 03:30:36;;;;;;;9.52;7.85;;;;;;;;;;4864654;29;20097;-94
2023/03/21 03:33:05;;;;;;;9.85;7.53;;;;;;;;;;4878518;29;20029;-92
2023/03/21 03:35:31;;;;;;;9.70;7.35;;;;;;;;;;4860183;29;20132;-95
2023/03/21 03:38:00;;;;;;;8.50;7.00;;;;;;;;;;4846079;29;20034;-94
2023/03/21 03:43:29;;;;;;;10.50;6.90;;;;;;;;;;4894182;23;20045;-94
2023/03/21 03:46:11;;;;;;;10.05;7.35;;;;;;;;;;4822841;29;20300;-94
2023/03/21 03:48:45;;;;;;;8.82;7.63;;;;;;;;;;4809645;29;20465;-94
2023/03/21 03:51:16;;;;;;;9.23;7.10;;;;;;;;;;4808978;29;20117;-93
2023/03/21 03:53:46;;;;;;;8.50;7.32;;;;;;;;;;4809185;29;20141;-95
2023/03/21 03:56:13;;;;;;;8.60;7.38;;;;;;;;;;4809119;29;20023;-95
2023/03/21 03:58:40;;;;;;;10.15;7.75;;;;;;;;;;4809255;29;20077;-94
2023/03/21 04:01:06;;;;;;;9.02;7.20;;;;;;;;;;4809182;29;20575;-93
2023/03/21 04:03:33;;;;;;;9.80;7.45;;;;;;;;;;4808937;29;20038;-95
2023/03/21 04:05:59;;;;;;;12.25;7.22;;;;;;;;;;4808974;29;20062;-94
2023/03/21 04:08:25;;;;;;;10.32;7.00;;;;;;;;;;4809158;29;20058;-95
2023/03/21 04:10:52;;;;;;;8.85;7.55;;;;;;;;;;4821020;29;20023;-91
2023/03/21 04:13:18;;;;;;;8.00;7.05;;;;;;;;;;4824549;29;20042;-94
2023/03/21 04:15:44;;;;;;;10.15;7.53;;;;;;;;;;4810734;29;20038;-94
2023/03/21 04:18:10;;;;;;;8.85;7.00;;;;;;;;;;4808686;29;20126;-94
2023/03/21 04:20:36;;;;;;;9.10;7.00;;;;;;;;;;4808899;29;20052;-93
2023/03/21 04:23:02;;;;;;;9.15;7.13;;;;;;;;;;4808895;29;20040;-94
2023/03/21 04:25:29;;;;;;;8.98;6.90;;;;;;;;;;4808775;29;20033;-94
2023/03/21 04:27:55;;;;;;;10.07;7.18;;;;;;;;;;4808810;29;20026;-94
2023/03/21 04:30:23;;;;;;;7.95;5.78;;;;;;;;;;4808335;29;20026;-93
2023/03/21 04:32:53;;;;;;;8.35;6.10;;;;;;;;;;4808873;29;20538;-93
2023/03/21 04:35:20;;;;;;;13.50;8.25;;;;;;;;;;4808070;29;20030;-95
2023/03/21 04:37:46;;;;;;;10.98;8.07;;;;;;;;;;4808397;29;20034;-95
2023/03/21 04:40:16;;;;;;;13.35;7.93;;;;;;;;;;4808359;29;20548;-93
2023/03/21 04:42:42;;;;;;;10.10;7.47;;;;;;;;;;4808123;29;20038;-93
2023/03/21 04:45:09;;;;;;;10.75;6.93;;;;;;;;;;4808275;29;20050;-94
2023/03/21 04:47:35;;;;;;;8.77;5.95;;;;;;;;;;4823417;29;20039;-93
2023/03/21 04:50:01;;;;;;;7.72;5.75;;;;;;;;;;4808188;29;20038;-95
2023/03/21 04:52:28;;;;;;;7.20;5.78;;;;;;;;;;4823324;29;20038;-95
2023/03/21 04:54:54;;;;;;;8.43;6.35;;;;;;;;;;4823799;29;20488;-94
2023/03/21 04:57:20;;;;;;;7.20;5.95;;;;;;;;;;4823689;29;20034;-93
2023/03/21 04:59:46;;;;;;;8.20;6.10;;;;;;;;;;4823203;29;20034;-93
2023/03/21 05:02:12;;;;;;;7.95;6.30;;;;;;;;;;4824624;29;20528;-93
2023/03/21 05:04:39;;;;;;;9.35;6.15;;;;;;;;;;4825299;29;20109;-94
2023/03/21 05:07:05;;;;;;;7.63;6.28;;;;;;;;;;4823193;29;20117;-94
2023/03/21 05:09:31;;;;;;;7.35;6.10;;;;;;;;;;4807813;29;20053;-94
2023/03/21 05:11:58;;;;;;;9.85;6.18;;;;;;;;;;4823381;29;20096;-94
2023/03/21 05:14:24;;;;;;;6.30;5.40;;;;;;;;;;4823054;29;20030;-93
2023/03/21 05:16:55;;;;;;;8.05;6.30;;;;;;;;;;4816000;29;20035;-91
2023/03/21 05:19:22;;;;;;;8.00;6.57;;;;;;;;;;4827388;29;20095;-94
2023/03/21 05:21:49;;;;;;;7.93;6.05;;;;;;;;;;4823219;29;20129;-94
2023/03/21 05:24:17;;;;;;;7.03;5.68;;;;;;;;;;4822838;29;20091;-95
2023/03/21 05:26:48;;;;;;;7.88;6.30;;;;;;;;;;4822849;29;20061;-94
2023/03/21 05:29:15;;;;;;;7.00;5.70;;;;;;;;;;4807428;29;20030;-94
2023/03/21 05:31:41;;;;;;;9.50;7.38;;;;;;;;;;4822673;29;20034;-95
2023/03/21 05:34:07;;;;;;;10.93;7.88;;;;;;;;;;4823017;29;20027;-95
2023/03/21 05:36:34;;;;;;;16.10;9.65;;;;;;;;;;4807499;29;20504;-95
2023/03/21 05:39:01;;;;;;;11.43;8.93;;;;;;;;;;4822681;29;20037;-95
2023/03/21 05:41:27;;;;;;;9.38;7.30;;;;;;;;;;4822637;29;20066;-94
2023/03/21 05:43:53;;;;;;;9.20;6.80;;;;;;;;;;4822465;29;20078;-95
2023/03/21 05:46:19;;;;;;;9.38;6.55;;;;;;;;;;4808157;29;20038;-95
2023/03/21 05:48:46;;;;;;;11.45;6.18;;;;;;;;;;4823051;29;20388;-94
2023/03/21 05:51:12;;;;;;;7.35;5.85;;;;;;;;;;4823522;29;20030;-94
2023/03/21 05:53:38;;;;;;;10.02;7.28;;;;;;;;;;4822447;29;20033;-94
2023/03/21 05:56:04;;;;;;;8.85;6.30;;;;;;;;;;4822699;29;20119;-93
2023/03/21 05:58:30;;;;;;;8.55;6.22;;;;;;;;;;4822718;29;20044;-93
2023/03/21 06:00:56;;;;;;;10.13;6.95;;;;;;;;;;4807407;29;20117;-94
2023/03/21 06:03:23;;;;;;;12.98;7.57;;;;;;;;;;4822762;29;20480;-95
2023/03/21 06:05:49;;;;;;;8.38;7.30;;;;;;;;;;4823140;29;20157;-95
2023/03/21 06:08:15;;;;;;;8.00;5.40;;;;;;;;;;4822528;29;20041;-95
2023/03/21 06:10:41;;;;;;;7.47;5.53;;;;;;;;;;4822816;29;20034;-94
2023/03/21 06:13:08;;;;;;;6.70;5.03;;;;;;;;;;4830284;29;20047;-94
2023/03/21 06:15:34;;;;;;;5.95;4.82;;;;;;;;;;4835696;29;20475;-95
2023/03/21 06:18:00;;;;;;;9.52;5.10;;;;;;;;;;4822867;29;20038;-95
2023/03/21 06:20:26;;;;;;;7.32;4.90;;;;;;;;;;4822048;29;20556;-94
2023/03/21 06:25:52;;;;;;;5.63;4.80;;;;;;;;;;4903646;23;20125;-93
2023/03/21 06:28:19;;;;;;;6.03;4.32;;;;;;;;;;4861676;29;20025;-93
2023/03/21 06:30:45;;;;;;;5.68;4.30;;;;;;;;;;4862292;29;20387;-95
2023/03/21 06:33:11;;;;;;;5.57;4.60;;;;;;;;;;4862970;29;20037;-94
2023/03/21 06:35:37;;;;;;;5.57;4.47;;;;;;;;;;4863475;29;20068;-94
2023/03/21 06:38:03;;;;;;;5.65;4.18;;;;;;;;;;4863235;29;20048;-94
2023/03/21 06:40:29;;;;;;;5.00;3.85;;;;;;;;;;4863384;29;20625;-94
2023/03/21 06:42:56;;;;;;;5.18;3.92;;;;;;;;;;4865793;29;20040;-92
2023/03/21 06:45:24;;;;;;;5.03;3.35;;;;;;;;;;4863943;29;20033;-95
2023/03/21 06:47:50;;;;;;;4.65;3.30;;;;;;;;;;4864636;29;20086;-94
2023/03/21 06:50:16;;;;;;;3.90;3.22;;;;;;;;;;4865552;29;20116;-93
2023/03/21 06:52:42;;;;;;;4.30;3.10;;;;;;;;;;4863784;29;20124;-92
2023/03/21 06:55:09;;;;;;;4.25;3.30;;;;;;;;;;4863364;29;20562;-92
2023/03/21 06:57:35;;;;;;;4.63;3.28;;;;;;;;;;4867339;29;20029;-92
2023/03/21 07:00:01;;;;;;;8.40;3.88;;;;;;;;;;4873362;29;20037;-89
2023/03/21 07:02:31;;;;;;;4.90;3.75;;;;;;;;;;4881066;29;20037;-93
2023/03/21 07:04:57;;;;;;;6.05;3.83;;;;;;;;;;4857621;29;20736;-94
2023/03/21 07:07:25;;;;;;;5.45;3.83;;;;;;;;;;4856786;29;20115;-92
2023/03/21 07:09:51;;;;;;;4.47;3.67;;;;;;;;;;4867271;29;20599;-93
2023/03/21 07:12:17;;;;;;;5.05;3.92;;;;;;;;;;4866928;29;20029;-94
2023/03/21 07:14:43;;;;;;;4.95;3.83;;;;;;;;;;4867069;29;20486;-93
2023/03/21 07:17:10;;;;;;;5.35;4.07;;;;;;;;;;4858529;29;20030;-94
2023/03/21 07:22:40;;;;;;;5.03;3.67;;;;;;;;;;4885557;29;20112;-92
2023/03/21 07:25:07;;;;;;;5.28;4.10;;;;;;;;;;4860458;29;20064;-93
2023/03/21 07:27:33;;;;;;;6.20;4.75;;;;;;;;;;4848303;29;20037;-93
2023/03/21 07:29:59;;;;;;;6.75;4.00;;;;;;;;;;4848343;29;20124;-93
2023/03/21 07:32:28;;;;;;;4.95;3.53;;;;;;;;;;4849323;29;20049;-93
2023/03/21 07:34:55;;;;;;;5.85;3.85;;;;;;;;;;4848016;29;20029;-94
2023/03/21 07:37:22;;;;;;;5.78;4.43;;;;;;;;;;4847842;29;20102;-92
2023/03/21 07:39:49;;;;;;;4.43;3.80;;;;;;;;;;4847913;29;20040;-93
2023/03/21 07:42:15;;;;;;;4.88;4.10;;;;;;;;;;4847871;29;20047;-94
2023/03/21 07:44:41;;;;;;;5.82;4.15;;;;;;;;;;4847804;29;20033;-91
2023/03/21 07:47:07;;;;;;;4.93;4.07;;;;;;;;;;4846821;29;20033;-94
2023/03/21 07:49:34;;;;;;;4.72;3.55;;;;;;;;;;4846728;29;20384;-92
2023/03/21 07:52:01;;;;;;;6.13;3.70;;;;;;;;;;4846594;29;20030;-93
2023/03/21 07:54:27;;;;;;;5.65;4.20;;;;;;;;;;4836919;29;20055;-93
2023/03/21 07:56:54;;;;;;;6.43;4.20;;;;;;;;;;4853587;29;20033;-94
2023/03/21 07:59:46;;;;;;;5.72;4.60;;;;;;;;;;4848863;29;20041;-94
2023/03/21 08:02:16;;;;;;;5.10;4.40;;;;;;;;;;4844229;29;20049;-94
2023/03/21 08:04:42;;;;;;;5.28;3.97;;;;;;;;;;4829931;29;20109;-93
2023/03/21 08:07:09;;;;;;;5.82;4.63;;;;;;;;;;4833348;29;20033;-93
2023/03/21 08:09:36;;;;;;;5.15;4.22;;;;;;;;;;4841410;29;20085;-94
2023/03/21 08:12:02;;;;;;;6.00;4.45;;;;;;;;;;4847809;29;20081;-94
2023/03/21 08:14:28;;;;;;;7.15;4.82;;;;;;;;;;4847747;29;20037;-95
2023/03/21 08:16:54;;;;;;;6.53;4.90;;;;;;;;;;4848107;29;20031;-94
2023/03/21 08:19:21;;;;;;;6.15;4.22;;;;;;;;;;4824314;29;20044;-96
2023/03/21 08:21:50;;;;;;;4.88;4.20;;;;;;;;;;4840067;29;20650;-94
2023/03/21 08:24:17;;;;;;;6.97;3.88;;;;;;;;;;4829538;29;20037;-94
2023/03/21 08:26:44;;;;;;;5.05;3.90;;;;;;;;;;4848955;29;20097;-93
2023/03/21 08:35:25;;;;;;;5.43;4.15;;;;;;;;;;4890096;23;20399;-94
2023/03/21 08:37:52;;;;;;;7.45;4.88;;;;;;;;;;4866738;29;20025;-94
2023/03/21 08:40:19;;;;;;;4.82;3.58;;;;;;;;;;4867012;29;20037;-92
2023/03/21 08:42:46;;;;;;;7.80;3.90;;;;;;;;;;4865945;29;20037;-94
2023/03/21 08:45:12;;;;;;;5.90;4.45;;;;;;;;;;4869792;29;20032;-92
2023/03/21 08:47:41;;;;;;;6.00;5.10;;;;;;;;;;4873012;29;20032;-95
2023/03/21 08:50:08;;;;;;;5.72;4.70;;;;;;;;;;4867681;29;20025;-94
2023/03/21 08:52:34;;;;;;;6.03;4.85;;;;;;;;;;4865761;29;20037;-93
2023/03/21 08:55:01;;;;;;;5.80;4.57;;;;;;;;;;4852833;29;20021;-91
2023/03/21 08:57:27;;;;;;;5.60;4.63;;;;;;;;;;4855646;29;20679;-95
2023/03/21 08:59:54;;;;;;;5.50;4.97;;;;;;;;;;4847109;29;20108;-93
2023/03/21 09:11:23;;;;;;;7.75;5.75;;;;;;;;;;4936199;23;20048;-93
2023/03/21 09:13:49;;;;;;;7.05;5.85;;;;;;;;;;4886657;29;20053;-93
2023/03/21 09:16:18;;;;;;;7.82;5.75;;;;;;;;;;4887946;29;20127;-95
2023/03/21 09:18:45;;;;;;;7.38;5.47;;;;;;;;;;4884027;29;20021;-94
2023/03/21 09:21:13;;;;;;;30.15;18.85;;;;;;;;;;4882755;29;20041;-92
2023/03/21 09:23:40;;;;;;;17.00;11.30;;;;;;;;;;4883494;29;20032;-92
2023/03/21 09:26:08;;;;;;;94.82;50.45;;;;;;;;;;4883110;29;20486;-93
2023/03/21 09:28:35;;;;;;;16.73;10.38;;;;;;;;;;4882961;29;20080;-93
2023/03/21 09:31:01;;;;;;;18.77;9.77;;;;;;;;;;4883175;29;20037;-92
2023/03/21 09:33:28;;;;;;;10.20;6.82;;;;;;;;;;4883023;29;20574;-92
2023/03/21 09:35:59;;;;;;;8.10;5.75;;;;;;;;;;4882567;29;20084;-93
2023/03/21 09:38:29;;;;;;;27.15;13.63;;;;;;;;;;4882805;29;20032;-92
2023/03/21 09:41:10;;;;;;;12.00;7.70;;;;;;;;;;4880556;29;20040;-93
2023/03/21 09:43:42;;;;;;;7.53;5.22;;;;;;;;;;4872759;29;20037;-93
2023/03/21 09:46:21;;;;;;;6.38;5.45;;;;;;;;;;4882660;29;20048;-93
2023/03/21 09:48:56;;;;;;;7.32;5.53;;;;;;;;;;4882849;29;20070;-91
2023/03/21 09:51:23;;;;;;;5.32;4.22;;;;;;;;;;4882330;29;20044;-92
2023/03/21 09:53:50;;;;;;;8.38;5.18;;;;;;;;;;4883972;29;20115;-92
2023/03/21 09:56:17;;;;;;;6.20;5.25;;;;;;;;;;4885456;29;20441;-91
2023/03/21 09:58:46;;;;;;;7.93;6.28;;;;;;;;;;4903089;29;20040;-92
2023/03/21 10:01:28;;;;;;;8.52;6.60;;;;;;;;;;4894640;29;20585;-92
2023/03/21 10:03:55;;;;;;;6.57;5.20;;;;;;;;;;4889727;29;20105;-91
2023/03/21 10:06:28;;;;;;;7.15;5.03;;;;;;;;;;4882793;29;20446;-92
2023/03/21 10:08:57;;;;;;;6.40;5.10;;;;;;;;;;4884869;29;20496;-94
2023/03/21 10:11:32;;;;;;;8.95;5.20;;;;;;;;;;4879623;29;20801;-94
2023/03/21 10:14:01;;;;;;;6.68;4.75;;;;;;;;;;4879819;29;20901;-94
2023/03/21 10:16:49;;;;;;;7.47;5.00;;;;;;;;;;4879025;29;20041;-94
2023/03/21 10:19:16;;;;;;;7.82;5.90;;;;;;;;;;4894755;29;20033;-92
2023/03/21 10:21:45;;;;;;;6.32;4.65;;;;;;;;;;4894726;29;20045;-92
2023/03/21 10:24:31;;;;;;;5.68;4.90;;;;;;;;;;4894442;29;20356;-93
2023/03/21 10:26:58;;;;;;;6.78;4.82;;;;;;;;;;4861494;29;20029;-92
2023/03/21 10:29:27;;;;;;;5.53;4.30;;;;;;;;;;4878628;29;20037;-92
2023/03/21 10:31:54;;;;;;;6.72;4.18;;;;;;;;;;4903197;29;20402;-91
2023/03/21 10:34:26;;;;;;;4.63;3.00;;;;;;;;;;4894233;29;20026;-91
2023/03/21 10:36:53;;;;;;;5.88;3.50;;;;;;;;;;4894476;29;20029;-92
2023/03/21 10:39:38;;;;;;;5.10;3.40;;;;;;;;;;4894249;29;20037;-92
2023/03/21 10:42:04;;;;;;;5.00;4.07;;;;;;;;;;4894381;29;20044;-92
2023/03/21 10:44:32;;;;;;;5.53;3.70;;;;;;;;;;4894632;29;20029;-92
2023/03/21 10:47:02;;;;;;;4.68;3.75;;;;;;;;;;4894361;29;20033;-92
2023/03/21 10:49:30;;;;;;;4.78;3.80;;;;;;;;;;4877504;29;20025;-92
2023/03/21 10:51:57;;;;;;;5.30;4.00;;;;;;;;;;4877256;29;20044;-92
2023/03/21 10:54:27;;;;;;;4.57;3.47;;;;;;;;;;4875856;29;20030;-93
2023/03/21 10:56:58;;;;;;;5.25;3.63;;;;;;;;;;4878237;29;20069;-92
2023/03/21 10:59:26;;;;;;;4.82;3.58;;;;;;;;;;4878335;29;20344;-92
2023/03/21 11:02:06;;;;;;;4.63;3.53;;;;;;;;;;4878642;29;20037;-93
2023/03/21 11:04:32;;;;;;;5.88;3.10;;;;;;;;;;4878075;29;20474;-92
2023/03/21 11:07:00;;;;;;;5.20;3.50;;;;;;;;;;4877218;29;20044;-91
2023/03/21 11:09:42;;;;;;;4.45;3.50;;;;;;;;;;4891739;29;20053;-93
2023/03/21 11:12:12;;;;;;;5.78;3.80;;;;;;;;;;4880655;29;20054;-92
2023/03/21 11:14:46;;;;;;;5.80;3.58;;;;;;;;;;4880030;29;20037;-94
2023/03/21 11:17:20;;;;;;;5.05;3.83;;;;;;;;;;4879527;29;20169;-93
2023/03/21 11:19:49;;;;;;;5.38;3.50;;;;;;;;;;4870113;29;20476;-93
2023/03/21 11:22:15;;;;;;;4.93;3.55;;;;;;;;;;4860983;29;20041;-93
2023/03/21 11:24:43;;;;;;;5.15;3.30;;;;;;;;;;4860858;29;20021;-92
2023/03/21 11:27:09;;;;;;;5.28;3.30;;;;;;;;;;4860937;29;20037;-93
2023/03/21 11:29:38;;;;;;;3.65;3.00;;;;;;;;;;4860609;29;20132;-92
2023/03/21 11:32:11;;;;;;;6.40;3.78;;;;;;;;;;4860889;29;20116;-93
2023/03/21 11:34:41;;;;;;;5.47;3.90;;;;;;;;;;4860794;29;20079;-93
2023/03/21 11:37:17;;;;;;;5.68;3.53;;;;;;;;;;4860828;29;20085;-92
2023/03/21 11:39:47;;;;;;;4.82;3.33;;;;;;;;;;4861184;29;20429;-92
2023/03/21 11:45:19;;;;;;;6.82;3.60;;;;;;;;;;4889157;23;20065;-92
2023/03/21 11:47:46;;;;;;;5.18;3.10;;;;;;;;;;4845740;29;20698;-92
2023/03/21 11:50:15;;;;;;;4.53;3.03;;;;;;;;;;4845459;29;20105;-93
2023/03/21 11:52:48;;;;;;;4.07;2.80;;;;;;;;;;4845346;29;20030;-91
2023/03/21 11:55:24;;;;;;;4.13;2.90;;;;;;;;;;4845349;29;20025;-92
2023/03/21 16:22:46;;;;;;;6.22;2.95;;;;;;;;;;3748848;23;21055;31
2023/03/21 16:25:13;;;;;;;6.80;2.95;;;;;;;;;;4860217;29;20516;-96
2023/03/21 16:27:39;;;;;;;9.07;3.30;;;;;;;;;;4862613;29;20128;-96
2023/03/21 16:30:14;;;;;;;6.50;2.65;;;;;;;;;;4867756;29;20112;-96
2023/03/21 16:32:50;;;;;;;;;;;;;;;;;;;;;
2023/03/21 16:35:59;;;;;;;5.30;2.47;;;;;;;;;;4851362;29;20109;-96
2023/03/21 16:38:27;;;;;;;26.38;6.65;;;;;;;;;;4815165;29;20058;-96
2023/03/21 16:40:54;;;;;;;13.55;4.35;;;;;;;;;;4830997;29;20041;-93
2023/03/21 16:43:37;;;;;;;23.45;6.75;;;;;;;;;;4835577;29;20037;-95
2023/03/21 16:46:14;;;;;;;15.23;6.63;;;;;;;;;;4834738;29;20026;-96
2023/03/21 16:48:44;;;;;;;15.35;5.35;;;;;;;;;;4836010;29;20042;-94
2023/03/21 16:51:18;;;;;;;10.15;4.85;;;;;;;;;;4831894;29;20026;-96
2023/03/21 16:53:47;;;;;;;7.22;3.50;;;;;;;;;;4836036;29;20065;-95
2023/03/21 17:02:43;;;;;;;9.35;2.80;;;;;;;;;;4739387;30;20507;-95
2023/03/21 17:05:12;;;;;;;5.18;2.67;;;;;;;;;;4727521;30;20029;-94
2023/03/21 17:07:38;;;;;;;7.85;2.85;;;;;;;;;;4810149;29;20053;-95
2023/03/21 17:10:22;;;;;;;18.45;8.32;;;;;;;;;;4837779;29;20042;-96
2023/03/21 17:12:48;;;;;;;8.38;3.90;;;;;;;;;;4845974;29;20026;-92
2023/03/21 17:15:15;;;;;;;8.15;3.53;;;;;;;;;;4828684;29;20455;-91
2023/03/21 17:17:41;;;;;;;6.82;3.13;;;;;;;;;;4829540;29;20058;-93
2023/03/21 17:20:21;;;;;;;19.85;4.40;;;;;;;;;;4840051;29;20055;-94
2023/03/21 17:22:48;;;;;;;43.42;26.10;;;;;;;;;;4834173;29;20066;-94
2023/03/21 17:25:15;;;;;;;67.53;41.55;;;;;;;;;;4828253;29;20026;-94
2023/03/21 17:27:44;;;;;;;16.10;7.90;;;;;;;;;;4829063;29;20503;-93
2023/03/21 17:30:20;;;;;;;16.00;5.65;;;;;;;;;;4827348;29;20030;-92
2023/03/21 17:32:47;;;;;;;18.15;8.63;;;;;;;;;;4827581;29;20548;-92
2023/03/21 17:35:13;;;;;;;45.67;21.15;;;;;;;;;;4827109;29;20121;-92
2023/03/21 17:37:39;;;;;;;76.85;35.58;;;;;;;;;;4826513;29;20029;-93
2023/03/21 17:40:06;;;;;;;81.30;36.97;;;;;;;;;;4825937;29;20033;-91
2023/03/21 17:42:33;;;;;;;55.15;26.73;;;;;;;;;;4835857;29;20117;-95
2023/03/21 17:44:59;;;;;;;33.92;16.75;;;;;;;;;;4827214;29;20029;-94
2023/03/21 17:47:28;;;;;;;37.45;18.50;;;;;;;;;;4826279;29;20124;-91
2023/03/21 17:49:54;;;;;;;29.02;11.90;;;;;;;;;;4826862;29;20033;-91
2023/03/21 17:52:20;;;;;;;18.38;7.68;;;;;;;;;;4827422;29;20034;-92
2023/03/21 17:57:50;;;;;;;20.98;8.65;;;;;;;;;;4844130;29;20037;-91
2023/03/21 18:00:22;;;;;;;31.83;13.18;;;;;;;;;;4827386;29;20030;-91
2023/03/21 18:02:49;;;;;;;34.83;17.23;;;;;;;;;;4827380;29;20041;-92
2023/03/21 18:05:15;;;;;;;31.17;12.30;;;;;;;;;;4829093;29;20034;-93
2023/03/21 18:07:46;;;;;;;41.67;18.38;;;;;;;;;;4829107;29;20082;-96
2023/03/21 18:10:14;;;;;;;62.65;28.05;;;;;;;;;;4833495;29;20069;-92
2023/03/21 18:12:40;;;;;;;68.03;31.27;;;;;;;;;;4829915;29;20030;-93
2023/03/21 18:15:07;;;;;;;79.68;38.90;;;;;;;;;;4827166;29;20056;-92
2023/03/21 18:17:33;;;;;;;73.72;38.83;;;;;;;;;;4827068;29;20128;-93
2023/03/21 18:19:59;;;;;;;72.47;35.47;;;;;;;;;;4827084;29;20033;-93
2023/03/21 18:22:26;;;;;;;67.70;35.63;;;;;;;;;;4827028;29;20042;-94
2023/03/21 18:24:56;;;;;;;62.03;34.95;;;;;;;;;;4827488;29;20041;-94
2023/03/21 18:27:30;;;;;;;53.05;29.15;;;;;;;;;;4827187;29;20116;-93
2023/03/21 18:29:57;;;;;;;54.40;30.88;;;;;;;;;;4826609;29;20037;-91
2023/03/21 18:32:25;;;;;;;64.28;33.75;;;;;;;;;;4826577;29;20037;-90
2023/03/21 18:34:51;;;;;;;41.78;21.35;;;;;;;;;;4826949;29;20026;-91
2023/03/21 18:37:17;;;;;;;25.13;13.00;;;;;;;;;;4827610;29;20480;-92
2023/03/21 18:39:44;;;;;;;17.10;9.93;;;;;;;;;;4828603;29;20055;-95
2023/03/21 18:42:12;;;;;;;25.92;12.18;;;;;;;;;;4831013;29;20049;-92
2023/03/21 18:44:44;;;;;;;28.73;16.02;;;;;;;;;;4828940;29;20037;-95
2023/03/21 18:47:11;;;;;;;35.63;20.42;;;;;;;;;;4826780;29;20034;-95
2023/03/21 18:49:37;;;;;;;34.25;20.27;;;;;;;;;;4827124;29;20571;-93
2023/03/21 18:52:05;;;;;;;28.58;17.90;;;;;;;;;;4829438;29;20026;-93
2023/03/21 18:54:31;;;;;;;52.25;31.33;;;;;;;;;;4842169;29;20018;-94
2023/03/21 18:56:57;;;;;;;49.50;31.88;;;;;;;;;;4844197;29;20388;-91
2023/03/21 18:59:24;;;;;;;36.88;21.08;;;;;;;;;;4830714;29;20133;-93
2023/03/21 19:01:50;;;;;;;31.52;19.08;;;;;;;;;;4830038;29;20045;-92
2023/03/21 19:04:18;;;;;;;67.38;38.97;;;;;;;;;;4830352;29;20036;-93
2023/03/21 19:06:45;;;;;;;52.88;31.92;;;;;;;;;;4833373;29;20044;-92
2023/03/21 19:09:13;;;;;;;26.67;14.73;;;;;;;;;;4837123;29;20019;-94
2023/03/21 19:11:43;;;;;;;14.80;7.88;;;;;;;;;;4830172;29;20037;-93
2023/03/21 19:14:37;;;;;;;13.32;7.00;;;;;;;;;;4829251;29;20030;-93
2023/03/21 19:17:03;;;;;;;;;;;;;;;;;;4828206;29;20034;-92
2023/03/21 19:19:29;;;;;;;19.88;8.35;;;;;;;;;;4827726;29;20418;-92
2023/03/21 19:21:56;;;;;;;17.58;8.80;;;;;;;;;;4828139;29;20046;-94
2023/03/21 19:24:22;;;;;;;20.00;9.10;;;;;;;;;;4827588;29;20056;-93
2023/03/21 19:26:48;;;;;;;34.33;15.95;;;;;;;;;;4827956;29;20040;-92
2023/03/21 19:29:15;;;;;;;33.72;17.60;;;;;;;;;;4827489;29;20032;-91
2023/03/21 19:31:43;;;;;;;32.13;17.63;;;;;;;;;;4828058;29;20030;-91
2023/03/21 19:34:12;;;;;;;36.85;16.33;;;;;;;;;;4838900;29;20058;-92
2023/03/21 19:36:38;;;;;;;31.80;16.55;;;;;;;;;;4832299;29;20052;-92
2023/03/21 19:39:11;;;;;;;36.33;18.38;;;;;;;;;;4828525;29;20032;-92
2023/03/21 19:41:46;;;;;;;32.58;17.92;;;;;;;;;;4828106;29;20073;-94
2023/03/21 19:44:21;;;;;;;34.25;17.60;;;;;;;;;;4826781;29;20042;-92
2023/03/21 19:46:53;;;;;;;39.83;18.35;;;;;;;;;;4840223;29;20037;-93
2023/03/21 19:49:22;;;;;;;34.45;16.45;;;;;;;;;;4827954;29;20034;-92
2023/03/21 19:51:51;;;;;;;32.28;16.48;;;;;;;;;;4827853;29;20078;-92
2023/03/21 19:54:18;;;;;;;36.80;19.42;;;;;;;;;;4827927;29;20033;-92